sensor_id;sensor_type;location;lat;lon;timestamp;temperature;humidity
8313;DHT22;4194;43.408;24.626;2022-11-20T00:00:56;9.50;99.90
8313;DHT22;4194;43.408;24.626;2022-11-20T00:03:22;9.30;99.90
8313;DHT22;4194;43.408;24.626;2022-11-20T00:05:47;9.30;99.90
8313;DHT22;4194;43.408;24.626;2022-11-20T00:08:13;8.90;99.90
8313;DHT22;4194;43.408;24.626;2022-11-20T00:10:40;8.00;99.90
8313;DHT22;4194;43.408;24.626;2022-11-20T00:13:06;8.40;99.90
8313;DHT22;4194;43.408;24.626;2022-11-20T00:15:32;8.90;99.90
8313;DHT22;4194;43.408;24.626;2022-11-20T00:17:58;9.30;99.90
8313;DHT22;4194;43.408;24.626;2022-11-20T00:20:24;9.30;99.90
8313;DHT22;4194;43.408;24.626;2022-11-20T00:22:50;9.30;99.90
8313;DHT22;4194;43.408;24.626;2022-11-20T00:25:16;8.80;99.90
8313;DHT22;4194;43.408;24.626;2022-11-20T00:27:42;9.30;99.90
8313;DHT22;4194;43.408;24.626;2022-11-20T00:30:08;8.60;99.90
8313;DHT22;4194;43.408;24.626;2022-11-20T00:32:34;8.20;99.90
8313;DHT22;4194;43.408;24.626;2022-11-20T00:35:00;9.60;99.90
8313;DHT22;4194;43.408;24.626;2022-11-20T00:37:26;8.20;99.90
8313;DHT22;4194;43.408;24.626;2022-11-20T00:39:52;7.90;99.90
8313;DHT22;4194;43.408;24.626;2022-11-20T00:42:18;9.10;99.90
8313;DHT22;4194;43.408;24.626;2022-11-20T00:44:43;7.60;99.90
8313;DHT22;4194;43.408;24.626;2022-11-20T00:47:09;8.80;99.90
8313;DHT22;4194;43.408;24.626;2022-11-20T00:49:34;9.00;99.90
8313;DHT22;4194;43.408;24.626;2022-11-20T00:52:00;9.10;99.90
8313;DHT22;4194;43.408;24.626;2022-11-20T00:54:26;9.70;99.90
8313;DHT22;4194;43.408;24.626;2022-11-20T00:56:54;9.10;99.90
8313;DHT22;4194;43.408;24.626;2022-11-20T01:01:46;8.70;99.90
8313;DHT22;4194;43.408;24.626;2022-11-20T01:04:12;8.40;99.90
8313;DHT22;4194;43.408;24.626;2022-11-20T01:06:38;8.00;99.90
8313;DHT22;4194;43.408;24.626;2022-11-20T01:09:11;9.10;99.90
8313;DHT22;4194;43.408;24.626;2022-11-20T01:11:39;8.70;99.90
8313;DHT22;4194;43.408;24.626;2022-11-20T01:14:09;8.50;99.90
8313;DHT22;4194;43.408;24.626;2022-11-20T01:16:37;9.80;99.90
8313;DHT22;4194;43.408;24.626;2022-11-20T01:19:06;9.00;99.90
8313;DHT22;4194;43.408;24.626;2022-11-20T01:21:34;8.90;99.90
8313;DHT22;4194;43.408;24.626;2022-11-20T01:24:01;8.60;99.90
8313;DHT22;4194;43.408;24.626;2022-11-20T01:26:29;9.00;99.90
8313;DHT22;4194;43.408;24.626;2022-11-20T01:28:56;9.00;99.90
8313;DHT22;4194;43.408;24.626;2022-11-20T01:31:25;8.90;99.90
8313;DHT22;4194;43.408;24.626;2022-11-20T01:33:52;10.00;99.90
8313;DHT22;4194;43.408;24.626;2022-11-20T01:36:19;9.10;99.90
8313;DHT22;4194;43.408;24.626;2022-11-20T01:38:46;8.20;99.90
8313;DHT22;4194;43.408;24.626;2022-11-20T01:41:14;9.00;99.90
8313;DHT22;4194;43.408;24.626;2022-11-20T01:44:00;9.80;99.90
8313;DHT22;4194;43.408;24.626;2022-11-20T01:46:26;9.30;99.90
8313;DHT22;4194;43.408;24.626;2022-11-20T01:51:50;8.80;99.90
8313;DHT22;4194;43.408;24.626;2022-11-20T01:54:30;8.90;99.90
8313;DHT22;4194;43.408;24.626;2022-11-20T01:56:59;9.00;99.90
8313;DHT22;4194;43.408;24.626;2022-11-20T01:59:26;9.80;99.90
8313;DHT22;4194;43.408;24.626;2022-11-20T02:01:54;9.80;99.90
8313;DHT22;4194;43.408;24.626;2022-11-20T02:04:20;8.90;99.90
8313;DHT22;4194;43.408;24.626;2022-11-20T02:11:43;8.30;99.90
8313;DHT22;4194;43.408;24.626;2022-11-20T02:14:09;9.10;99.90
8313;DHT22;4194;43.408;24.626;2022-11-20T02:16:43;9.40;99.90
8313;DHT22;4194;43.408;24.626;2022-11-20T02:19:16;8.40;99.90
8313;DHT22;4194;43.408;24.626;2022-11-20T02:24:21;9.00;99.90
8313;DHT22;4194;43.408;24.626;2022-11-20T02:27:08;9.00;99.90
8313;DHT22;4194;43.408;24.626;2022-11-20T02:30:03;9.00;99.90
8313;DHT22;4194;43.408;24.626;2022-11-20T02:37:23;10.00;99.90
8313;DHT22;4194;43.408;24.626;2022-11-20T02:39:52;8.30;99.90
8313;DHT22;4194;43.408;24.626;2022-11-20T02:44:45;9.30;99.90
8313;DHT22;4194;43.408;24.626;2022-11-20T02:47:10;9.60;99.90
8313;DHT22;4194;43.408;24.626;2022-11-20T02:49:36;10.00;99.90
8313;DHT22;4194;43.408;24.626;2022-11-20T02:52:02;9.90;99.90
8313;DHT22;4194;43.408;24.626;2022-11-20T02:54:27;9.00;99.90
8313;DHT22;4194;43.408;24.626;2022-11-20T02:56:53;8.10;99.90
8313;DHT22;4194;43.408;24.626;2022-11-20T02:59:19;9.70;99.90
8313;DHT22;4194;43.408;24.626;2022-11-20T03:01:44;9.00;99.90
8313;DHT22;4194;43.408;24.626;2022-11-20T03:04:10;9.20;99.90
8313;DHT22;4194;43.408;24.626;2022-11-20T03:06:36;7.80;99.90
8313;DHT22;4194;43.408;24.626;2022-11-20T03:09:01;9.20;99.90
8313;DHT22;4194;43.408;24.626;2022-11-20T03:11:27;8.90;99.90
8313;DHT22;4194;43.408;24.626;2022-11-20T03:16:21;9.00;99.90
8313;DHT22;4194;43.408;24.626;2022-11-20T03:18:48;9.70;99.90
8313;DHT22;4194;43.408;24.626;2022-11-20T03:21:15;8.20;99.90
8313;DHT22;4194;43.408;24.626;2022-11-20T03:23:41;8.30;99.90
8313;DHT22;4194;43.408;24.626;2022-11-20T03:28:38;9.00;99.90
8313;DHT22;4194;43.408;24.626;2022-11-20T03:31:12;9.40;99.90
8313;DHT22;4194;43.408;24.626;2022-11-20T03:33:39;9.20;99.90
8313;DHT22;4194;43.408;24.626;2022-11-20T03:36:06;8.60;99.90
8313;DHT22;4194;43.408;24.626;2022-11-20T03:38:33;9.30;99.90
8313;DHT22;4194;43.408;24.626;2022-11-20T03:41:04;8.90;99.90
8313;DHT22;4194;43.408;24.626;2022-11-20T03:43:30;8.90;99.90
8313;DHT22;4194;43.408;24.626;2022-11-20T03:45:56;8.20;99.90
8313;DHT22;4194;43.408;24.626;2022-11-20T03:48:22;9.30;99.90
8313;DHT22;4194;43.408;24.626;2022-11-20T03:53:15;9.30;99.90
8313;DHT22;4194;43.408;24.626;2022-11-20T03:58:07;9.10;99.90
8313;DHT22;4194;43.408;24.626;2022-11-20T04:00:32;9.10;99.90
8313;DHT22;4194;43.408;24.626;2022-11-20T04:05:25;9.70;99.90
8313;DHT22;4194;43.408;24.626;2022-11-20T04:07:51;9.40;99.90
8313;DHT22;4194;43.408;24.626;2022-11-20T04:10:16;10.10;99.90
8313;DHT22;4194;43.408;24.626;2022-11-20T04:12:42;9.40;99.90
8313;DHT22;4194;43.408;24.626;2022-11-20T04:15:08;9.60;99.90
8313;DHT22;4194;43.408;24.626;2022-11-20T04:17:34;9.30;99.90
8313;DHT22;4194;43.408;24.626;2022-11-20T04:20:00;9.50;99.90
8313;DHT22;4194;43.408;24.626;2022-11-20T04:22:26;9.40;99.90
8313;DHT22;4194;43.408;24.626;2022-11-20T04:24:51;10.30;99.90
8313;DHT22;4194;43.408;24.626;2022-11-20T04:27:17;9.30;99.90
8313;DHT22;4194;43.408;24.626;2022-11-20T04:29:43;9.40;99.90
8313;DHT22;4194;43.408;24.626;2022-11-20T04:32:09;9.90;99.90
8313;DHT22;4194;43.408;24.626;2022-11-20T04:34:34;10.00;99.90
8313;DHT22;4194;43.408;24.626;2022-11-20T04:37:00;9.90;99.90
8313;DHT22;4194;43.408;24.626;2022-11-20T04:39:26;11.30;99.90
8313;DHT22;4194;43.408;24.626;2022-11-20T04:41:52;9.90;99.90
8313;DHT22;4194;43.408;24.626;2022-11-20T04:47:04;11.10;99.90
8313;DHT22;4194;43.408;24.626;2022-11-20T04:49:29;10.20;99.90
8313;DHT22;4194;43.408;24.626;2022-11-20T04:51:57;9.40;99.90
8313;DHT22;4194;43.408;24.626;2022-11-20T04:54:23;9.90;99.90
8313;DHT22;4194;43.408;24.626;2022-11-20T04:56:49;9.40;99.90
8313;DHT22;4194;43.408;24.626;2022-11-20T04:59:40;9.80;99.90
8313;DHT22;4194;43.408;24.626;2022-11-20T05:02:06;8.50;99.90
8313;DHT22;4194;43.408;24.626;2022-11-20T05:04:32;9.40;99.90
8313;DHT22;4194;43.408;24.626;2022-11-20T05:06:57;9.70;99.90
8313;DHT22;4194;43.408;24.626;2022-11-20T05:09:23;8.20;99.90
8313;DHT22;4194;43.408;24.626;2022-11-20T05:11:48;8.70;99.90
8313;DHT22;4194;43.408;24.626;2022-11-20T05:14:14;9.40;99.90
8313;DHT22;4194;43.408;24.626;2022-11-20T05:16:40;9.40;99.90
8313;DHT22;4194;43.408;24.626;2022-11-20T05:19:05;9.10;99.90
8313;DHT22;4194;43.408;24.626;2022-11-20T05:21:31;9.30;99.90
8313;DHT22;4194;43.408;24.626;2022-11-20T05:23:57;8.80;99.90
8313;DHT22;4194;43.408;24.626;2022-11-20T05:26:23;9.30;99.90
8313;DHT22;4194;43.408;24.626;2022-11-20T05:28:50;9.30;99.90
8313;DHT22;4194;43.408;24.626;2022-11-20T05:31:19;9.70;99.90
8313;DHT22;4194;43.408;24.626;2022-11-20T05:33:45;9.30;99.90
8313;DHT22;4194;43.408;24.626;2022-11-20T05:36:12;9.20;99.90
8313;DHT22;4194;43.408;24.626;2022-11-20T05:41:10;9.20;99.90
8313;DHT22;4194;43.408;24.626;2022-11-20T05:43:38;9.10;99.90
8313;DHT22;4194;43.408;24.626;2022-11-20T05:46:06;9.00;99.90
8313;DHT22;4194;43.408;24.626;2022-11-20T05:48:32;9.00;99.90
8313;DHT22;4194;43.408;24.626;2022-11-20T05:50:59;9.00;99.90
8313;DHT22;4194;43.408;24.626;2022-11-20T05:53:25;8.30;99.90
8313;DHT22;4194;43.408;24.626;2022-11-20T05:56:09;9.00;99.90
8313;DHT22;4194;43.408;24.626;2022-11-20T05:58:36;8.80;99.90
8313;DHT22;4194;43.408;24.626;2022-11-20T06:01:07;9.40;99.90
8313;DHT22;4194;43.408;24.626;2022-11-20T06:03:33;9.10;99.90
8313;DHT22;4194;43.408;24.626;2022-11-20T06:05:59;8.60;99.90
8313;DHT22;4194;43.408;24.626;2022-11-20T06:08:25;9.20;99.90
8313;DHT22;4194;43.408;24.626;2022-11-20T06:10:51;8.90;99.90
8313;DHT22;4194;43.408;24.626;2022-11-20T06:13:16;9.00;99.90
8313;DHT22;4194;43.408;24.626;2022-11-20T06:15:42;9.10;99.90
8313;DHT22;4194;43.408;24.626;2022-11-20T06:18:07;9.00;99.90
8313;DHT22;4194;43.408;24.626;2022-11-20T06:20:33;9.30;99.90
8313;DHT22;4194;43.408;24.626;2022-11-20T06:22:59;9.00;99.90
8313;DHT22;4194;43.408;24.626;2022-11-20T06:25:24;8.80;99.90
8313;DHT22;4194;43.408;24.626;2022-11-20T06:27:50;9.80;99.90
8313;DHT22;4194;43.408;24.626;2022-11-20T06:30:16;9.00;99.90
8313;DHT22;4194;43.408;24.626;2022-11-20T06:32:41;8.70;99.90
8313;DHT22;4194;43.408;24.626;2022-11-20T06:35:07;8.90;99.90
8313;DHT22;4194;43.408;24.626;2022-11-20T06:37:33;8.80;99.90
8313;DHT22;4194;43.408;24.626;2022-11-20T06:39:59;8.90;99.90
8313;DHT22;4194;43.408;24.626;2022-11-20T06:42:24;9.10;99.90
8313;DHT22;4194;43.408;24.626;2022-11-20T06:47:16;8.80;99.90
8313;DHT22;4194;43.408;24.626;2022-11-20T06:49:42;8.80;99.90
8313;DHT22;4194;43.408;24.626;2022-11-20T06:52:07;8.90;99.90
8313;DHT22;4194;43.408;24.626;2022-11-20T06:54:33;8.80;99.90
8313;DHT22;4194;43.408;24.626;2022-11-20T06:56:59;8.90;99.90
8313;DHT22;4194;43.408;24.626;2022-11-20T06:59:24;9.00;99.90
8313;DHT22;4194;43.408;24.626;2022-11-20T07:01:50;7.90;99.90
8313;DHT22;4194;43.408;24.626;2022-11-20T07:04:16;9.10;99.90
8313;DHT22;4194;43.408;24.626;2022-11-20T07:06:41;9.10;99.90
8313;DHT22;4194;43.408;24.626;2022-11-20T07:09:07;8.90;99.90
8313;DHT22;4194;43.408;24.626;2022-11-20T07:11:32;8.90;99.90
8313;DHT22;4194;43.408;24.626;2022-11-20T07:13:58;9.70;99.90
8313;DHT22;4194;43.408;24.626;2022-11-20T07:16:24;10.50;99.90
8313;DHT22;4194;43.408;24.626;2022-11-20T07:18:49;9.10;99.90
8313;DHT22;4194;43.408;24.626;2022-11-20T07:21:15;9.30;99.90
8313;DHT22;4194;43.408;24.626;2022-11-20T07:23:41;9.80;99.90
8313;DHT22;4194;43.408;24.626;2022-11-20T07:26:08;10.00;99.90
8313;DHT22;4194;43.408;24.626;2022-11-20T07:33:27;10.50;99.90
8313;DHT22;4194;43.408;24.626;2022-11-20T07:35:53;9.50;99.90
8313;DHT22;4194;43.408;24.626;2022-11-20T07:38:18;11.60;99.90
8313;DHT22;4194;43.408;24.626;2022-11-20T07:40:44;11.10;99.90
8313;DHT22;4194;43.408;24.626;2022-11-20T07:43:10;11.40;99.90
8313;DHT22;4194;43.408;24.626;2022-11-20T07:45:35;9.80;99.90
8313;DHT22;4194;43.408;24.626;2022-11-20T07:50:27;11.40;99.90
8313;DHT22;4194;43.408;24.626;2022-11-20T07:53:00;9.20;99.90
8313;DHT22;4194;43.408;24.626;2022-11-20T07:55:26;10.00;99.90
8313;DHT22;4194;43.408;24.626;2022-11-20T07:57:56;9.90;99.90
8313;DHT22;4194;43.408;24.626;2022-11-20T08:00:23;10.00;99.90
8313;DHT22;4194;43.408;24.626;2022-11-20T08:02:48;9.90;99.90
8313;DHT22;4194;43.408;24.626;2022-11-20T08:05:14;11.50;99.90
8313;DHT22;4194;43.408;24.626;2022-11-20T08:07:41;10.10;99.90
8313;DHT22;4194;43.408;24.626;2022-11-20T08:12:35;11.80;99.90
8313;DHT22;4194;43.408;24.626;2022-11-20T08:15:20;10.30;99.90
8313;DHT22;4194;43.408;24.626;2022-11-20T08:17:46;10.50;99.90
8313;DHT22;4194;43.408;24.626;2022-11-20T08:25:04;10.40;99.90
8313;DHT22;4194;43.408;24.626;2022-11-20T08:27:31;10.50;99.90
8313;DHT22;4194;43.408;24.626;2022-11-20T08:29:58;11.50;99.90
8313;DHT22;4194;43.408;24.626;2022-11-20T08:32:23;11.20;99.90
8313;DHT22;4194;43.408;24.626;2022-11-20T08:34:49;9.80;99.90
8313;DHT22;4194;43.408;24.626;2022-11-20T08:37:15;10.60;99.90
8313;DHT22;4194;43.408;24.626;2022-11-20T08:39:40;11.70;99.90
8313;DHT22;4194;43.408;24.626;2022-11-20T08:42:09;11.40;99.90
8313;DHT22;4194;43.408;24.626;2022-11-20T08:44:35;11.50;99.90
8313;DHT22;4194;43.408;24.626;2022-11-20T08:47:00;11.00;99.90
8313;DHT22;4194;43.408;24.626;2022-11-20T08:49:26;11.30;99.90
8313;DHT22;4194;43.408;24.626;2022-11-20T08:51:52;11.40;99.90
8313;DHT22;4194;43.408;24.626;2022-11-20T08:54:20;10.90;99.90
8313;DHT22;4194;43.408;24.626;2022-11-20T08:56:48;11.30;99.90
8313;DHT22;4194;43.408;24.626;2022-11-20T08:59:14;12.40;99.90
8313;DHT22;4194;43.408;24.626;2022-11-20T09:01:39;10.80;99.90
8313;DHT22;4194;43.408;24.626;2022-11-20T09:04:05;11.60;99.90
8313;DHT22;4194;43.408;24.626;2022-11-20T09:06:31;12.00;99.90
8313;DHT22;4194;43.408;24.626;2022-11-20T09:08:56;12.10;99.90
8313;DHT22;4194;43.408;24.626;2022-11-20T09:11:22;12.20;99.90
8313;DHT22;4194;43.408;24.626;2022-11-20T09:13:48;12.10;99.90
8313;DHT22;4194;43.408;24.626;2022-11-20T09:16:14;11.30;99.90
8313;DHT22;4194;43.408;24.626;2022-11-20T09:18:40;12.30;99.90
8313;DHT22;4194;43.408;24.626;2022-11-20T09:21:10;11.70;99.90
8313;DHT22;4194;43.408;24.626;2022-11-20T09:23:37;11.60;99.90
8313;DHT22;4194;43.408;24.626;2022-11-20T09:26:09;11.30;99.90
8313;DHT22;4194;43.408;24.626;2022-11-20T09:28:35;10.80;99.90
8313;DHT22;4194;43.408;24.626;2022-11-20T09:31:05;11.50;99.90
8313;DHT22;4194;43.408;24.626;2022-11-20T09:33:32;12.00;99.90
8313;DHT22;4194;43.408;24.626;2022-11-20T09:35:58;11.90;99.90
8313;DHT22;4194;43.408;24.626;2022-11-20T09:38:24;11.90;99.90
8313;DHT22;4194;43.408;24.626;2022-11-20T09:41:04;12.00;99.90
8313;DHT22;4194;43.408;24.626;2022-11-20T09:46:29;12.30;99.90
8313;DHT22;4194;43.408;24.626;2022-11-20T09:52:13;12.30;99.90
8313;DHT22;4194;43.408;24.626;2022-11-20T09:54:43;11.20;99.90
8313;DHT22;4194;43.408;24.626;2022-11-20T09:57:13;12.50;99.90
8313;DHT22;4194;43.408;24.626;2022-11-20T10:07:40;12.30;99.90
8313;DHT22;4194;43.408;24.626;2022-11-20T10:10:34;12.30;99.90
8313;DHT22;4194;43.408;24.626;2022-11-20T10:24:05;13.10;99.90
8313;DHT22;4194;43.408;24.626;2022-11-20T10:26:43;13.70;99.90
8313;DHT22;4194;43.408;24.626;2022-11-20T10:29:14;13.90;99.90
8313;DHT22;4194;43.408;24.626;2022-11-20T10:31:46;12.70;99.90
8313;DHT22;4194;43.408;24.626;2022-11-20T10:34:22;13.20;99.90
8313;DHT22;4194;43.408;24.626;2022-11-20T10:36:56;12.40;99.90
8313;DHT22;4194;43.408;24.626;2022-11-20T10:39:35;12.00;99.90
8313;DHT22;4194;43.408;24.626;2022-11-20T10:42:01;12.90;99.90
8313;DHT22;4194;43.408;24.626;2022-11-20T10:44:28;11.70;99.90
8313;DHT22;4194;43.408;24.626;2022-11-20T10:47:17;13.30;99.90
8313;DHT22;4194;43.408;24.626;2022-11-20T10:49:48;11.00;99.90
8313;DHT22;4194;43.408;24.626;2022-11-20T10:58:14;11.80;99.90
8313;DHT22;4194;43.408;24.626;2022-11-20T11:00:41;12.20;99.90
8313;DHT22;4194;43.408;24.626;2022-11-20T11:03:23;11.70;99.90
8313;DHT22;4194;43.408;24.626;2022-11-20T11:05:57;11.60;99.90
8313;DHT22;4194;43.408;24.626;2022-11-20T11:08:28;11.70;99.90
8313;DHT22;4194;43.408;24.626;2022-11-20T11:11:02;11.50;99.90
8313;DHT22;4194;43.408;24.626;2022-11-20T11:13:31;11.30;99.90
8313;DHT22;4194;43.408;24.626;2022-11-20T11:15:57;11.80;99.90
8313;DHT22;4194;43.408;24.626;2022-11-20T11:18:28;11.80;99.90
8313;DHT22;4194;43.408;24.626;2022-11-20T11:20:56;11.70;99.90
8313;DHT22;4194;43.408;24.626;2022-11-20T11:23:42;12.00;99.90
8313;DHT22;4194;43.408;24.626;2022-11-20T11:26:34;11.70;99.90
8313;DHT22;4194;43.408;24.626;2022-11-20T11:29:01;11.80;99.90
8313;DHT22;4194;43.408;24.626;2022-11-20T11:31:33;12.20;99.90
8313;DHT22;4194;43.408;24.626;2022-11-20T11:34:14;12.30;99.90
8313;DHT22;4194;43.408;24.626;2022-11-20T11:36:40;11.50;99.90
8313;DHT22;4194;43.408;24.626;2022-11-20T11:39:14;11.60;99.90
8313;DHT22;4194;43.408;24.626;2022-11-20T11:41:41;11.60;99.90
8313;DHT22;4194;43.408;24.626;2022-11-20T11:47:02;11.10;99.90
8313;DHT22;4194;43.408;24.626;2022-11-20T11:49:29;12.00;99.90
8313;DHT22;4194;43.408;24.626;2022-11-20T11:52:16;11.50;99.90
8313;DHT22;4194;43.408;24.626;2022-11-20T11:55:01;10.20;99.90
8313;DHT22;4194;43.408;24.626;2022-11-20T12:00:19;11.70;99.90
8313;DHT22;4194;43.408;24.626;2022-11-20T12:05:24;11.50;99.90
8313;DHT22;4194;43.408;24.626;2022-11-20T12:08:27;11.60;99.90
8313;DHT22;4194;43.408;24.626;2022-11-20T12:11:13;11.90;99.90
8313;DHT22;4194;43.408;24.626;2022-11-20T12:16:20;12.20;99.90
8313;DHT22;4194;43.408;24.626;2022-11-20T12:18:50;12.40;99.90
8313;DHT22;4194;43.408;24.626;2022-11-20T12:21:20;11.90;99.90
8313;DHT22;4194;43.408;24.626;2022-11-20T12:40:17;12.40;99.90
8313;DHT22;4194;43.408;24.626;2022-11-20T12:42:59;12.90;99.90
8313;DHT22;4194;43.408;24.626;2022-11-20T12:46:46;12.50;99.90
8313;DHT22;4194;43.408;24.626;2022-11-20T12:54:11;11.60;99.90
8313;DHT22;4194;43.408;24.626;2022-11-20T13:02:05;11.80;99.90
8313;DHT22;4194;43.408;24.626;2022-11-20T13:07:19;11.30;99.90
8313;DHT22;4194;43.408;24.626;2022-11-20T13:09:49;12.70;99.90
8313;DHT22;4194;43.408;24.626;2022-11-20T13:20:06;11.40;99.90
8313;DHT22;4194;43.408;24.626;2022-11-20T13:22:49;11.50;99.90
8313;DHT22;4194;43.408;24.626;2022-11-20T13:25:31;11.50;99.90
8313;DHT22;4194;43.408;24.626;2022-11-20T13:28:46;11.50;99.90
8313;DHT22;4194;43.408;24.626;2022-11-20T13:30:52;11.50;99.90
8313;DHT22;4194;43.408;24.626;2022-11-20T13:33:37;11.50;99.90
8313;DHT22;4194;43.408;24.626;2022-11-20T13:36:06;10.60;99.90
8313;DHT22;4194;43.408;24.626;2022-11-20T13:38:51;11.80;99.90
8313;DHT22;4194;43.408;24.626;2022-11-20T13:41:53;12.70;99.90
8313;DHT22;4194;43.408;24.626;2022-11-20T13:44:37;11.70;99.90
8313;DHT22;4194;43.408;24.626;2022-11-20T13:47:04;10.80;99.90
8313;DHT22;4194;43.408;24.626;2022-11-20T13:49:44;11.30;99.90
8313;DHT22;4194;43.408;24.626;2022-11-20T14:03:44;11.30;99.90
8313;DHT22;4194;43.408;24.626;2022-11-20T14:06:41;11.40;99.90
8313;DHT22;4194;43.408;24.626;2022-11-20T14:09:12;10.20;99.90
8313;DHT22;4194;43.408;24.626;2022-11-20T14:11:46;11.20;99.90
8313;DHT22;4194;43.408;24.626;2022-11-20T14:14:19;11.30;99.90
8313;DHT22;4194;43.408;24.626;2022-11-20T14:16:46;10.80;99.90
8313;DHT22;4194;43.408;24.626;2022-11-20T14:21:54;10.80;99.90
8313;DHT22;4194;43.408;24.626;2022-11-20T14:24:24;11.20;99.90
8313;DHT22;4194;43.408;24.626;2022-11-20T14:26:51;11.20;99.90
8313;DHT22;4194;43.408;24.626;2022-11-20T14:29:20;10.70;99.90
8313;DHT22;4194;43.408;24.626;2022-11-20T14:31:47;11.90;99.90
8313;DHT22;4194;43.408;24.626;2022-11-20T14:34:20;11.20;99.90
8313;DHT22;4194;43.408;24.626;2022-11-20T14:36:46;11.10;99.90
8313;DHT22;4194;43.408;24.626;2022-11-20T14:39:20;10.80;99.90
8313;DHT22;4194;43.408;24.626;2022-11-20T14:41:53;10.70;99.90
8313;DHT22;4194;43.408;24.626;2022-11-20T14:44:23;11.40;99.90
8313;DHT22;4194;43.408;24.626;2022-11-20T14:46:51;11.20;99.90
8313;DHT22;4194;43.408;24.626;2022-11-20T14:49:17;11.10;99.90
8313;DHT22;4194;43.408;24.626;2022-11-20T14:51:42;12.60;99.90
8313;DHT22;4194;43.408;24.626;2022-11-20T14:56:38;11.30;99.90
8313;DHT22;4194;43.408;24.626;2022-11-20T14:59:03;11.50;99.90
8313;DHT22;4194;43.408;24.626;2022-11-20T15:01:31;11.20;99.90
8313;DHT22;4194;43.408;24.626;2022-11-20T15:04:06;11.00;99.90
8313;DHT22;4194;43.408;24.626;2022-11-20T15:06:33;11.30;99.90
8313;DHT22;4194;43.408;24.626;2022-11-20T15:08:58;11.80;99.90
8313;DHT22;4194;43.408;24.626;2022-11-20T15:11:35;11.30;99.90
8313;DHT22;4194;43.408;24.626;2022-11-20T15:14:05;11.30;99.90
8313;DHT22;4194;43.408;24.626;2022-11-20T15:16:32;11.20;99.90
8313;DHT22;4194;43.408;24.626;2022-11-20T15:18:58;11.30;99.90
8313;DHT22;4194;43.408;24.626;2022-11-20T15:21:25;11.30;99.90
8313;DHT22;4194;43.408;24.626;2022-11-20T15:23:51;11.40;99.90
8313;DHT22;4194;43.408;24.626;2022-11-20T15:26:27;11.00;99.90
8313;DHT22;4194;43.408;24.626;2022-11-20T15:28:53;11.40;99.90
8313;DHT22;4194;43.408;24.626;2022-11-20T15:31:21;11.40;99.90
8313;DHT22;4194;43.408;24.626;2022-11-20T15:33:47;12.40;99.90
8313;DHT22;4194;43.408;24.626;2022-11-20T15:38:39;11.30;99.90
8313;DHT22;4194;43.408;24.626;2022-11-20T15:41:05;11.40;99.90
8313;DHT22;4194;43.408;24.626;2022-11-20T15:43:31;11.60;99.90
8313;DHT22;4194;43.408;24.626;2022-11-20T15:46:00;11.60;99.90
8313;DHT22;4194;43.408;24.626;2022-11-20T15:48:29;11.60;99.90
8313;DHT22;4194;43.408;24.626;2022-11-20T15:53:37;11.70;99.90
8313;DHT22;4194;43.408;24.626;2022-11-20T15:56:03;11.70;99.90
8313;DHT22;4194;43.408;24.626;2022-11-20T15:58:29;11.60;99.90
8313;DHT22;4194;43.408;24.626;2022-11-20T16:00:56;11.70;99.90
8313;DHT22;4194;43.408;24.626;2022-11-20T16:03:23;11.70;99.90
8313;DHT22;4194;43.408;24.626;2022-11-20T16:05:48;11.80;99.90
8313;DHT22;4194;43.408;24.626;2022-11-20T16:08:14;11.90;99.90
8313;DHT22;4194;43.408;24.626;2022-11-20T16:10:40;11.70;99.90
8313;DHT22;4194;43.408;24.626;2022-11-20T16:13:13;12.50;99.90
8313;DHT22;4194;43.408;24.626;2022-11-20T16:18:25;11.90;99.90
8313;DHT22;4194;43.408;24.626;2022-11-20T16:20:52;11.00;99.90
8313;DHT22;4194;43.408;24.626;2022-11-20T16:23:19;11.70;99.90
8313;DHT22;4194;43.408;24.626;2022-11-20T16:25:45;11.70;99.90
8313;DHT22;4194;43.408;24.626;2022-11-20T16:28:11;10.50;99.90
8313;DHT22;4194;43.408;24.626;2022-11-20T16:30:38;11.90;99.90
8313;DHT22;4194;43.408;24.626;2022-11-20T16:33:04;11.60;99.90
8313;DHT22;4194;43.408;24.626;2022-11-20T16:35:30;11.60;99.90
8313;DHT22;4194;43.408;24.626;2022-11-20T16:40:24;11.70;99.90
8313;DHT22;4194;43.408;24.626;2022-11-20T16:42:50;11.50;99.90
8313;DHT22;4194;43.408;24.626;2022-11-20T16:45:16;12.00;99.90
8313;DHT22;4194;43.408;24.626;2022-11-20T16:47:41;11.60;99.90
8313;DHT22;4194;43.408;24.626;2022-11-20T16:50:08;11.60;99.90
8313;DHT22;4194;43.408;24.626;2022-11-20T16:52:34;11.40;99.90
8313;DHT22;4194;43.408;24.626;2022-11-20T16:54:59;11.70;99.90
8313;DHT22;4194;43.408;24.626;2022-11-20T16:57:29;11.70;99.90
8313;DHT22;4194;43.408;24.626;2022-11-20T16:59:57;11.70;99.90
8313;DHT22;4194;43.408;24.626;2022-11-20T17:02:22;11.70;99.90
8313;DHT22;4194;43.408;24.626;2022-11-20T17:04:48;11.70;99.90
8313;DHT22;4194;43.408;24.626;2022-11-20T17:07:14;11.50;99.90
8313;DHT22;4194;43.408;24.626;2022-11-20T17:09:40;11.80;99.90
8313;DHT22;4194;43.408;24.626;2022-11-20T17:12:05;10.80;99.90
8313;DHT22;4194;43.408;24.626;2022-11-20T17:14:31;11.80;99.90
8313;DHT22;4194;43.408;24.626;2022-11-20T17:16:57;11.80;99.90
8313;DHT22;4194;43.408;24.626;2022-11-20T17:19:23;11.50;99.90
8313;DHT22;4194;43.408;24.626;2022-11-20T17:21:50;11.90;99.90
8313;DHT22;4194;43.408;24.626;2022-11-20T17:24:43;11.80;99.90
8313;DHT22;4194;43.408;24.626;2022-11-20T17:27:09;11.80;99.90
8313;DHT22;4194;43.408;24.626;2022-11-20T17:29:36;13.10;99.90
8313;DHT22;4194;43.408;24.626;2022-11-20T17:32:33;12.10;99.90
8313;DHT22;4194;43.408;24.626;2022-11-20T17:35:12;11.90;99.90
8313;DHT22;4194;43.408;24.626;2022-11-20T17:41:41;12.00;99.90
8313;DHT22;4194;43.408;24.626;2022-11-20T17:44:11;12.00;99.90
8313;DHT22;4194;43.408;24.626;2022-11-20T17:49:22;12.20;99.90
8313;DHT22;4194;43.408;24.626;2022-11-20T17:51:48;12.20;99.90
8313;DHT22;4194;43.408;24.626;2022-11-20T18:42:42;12.50;99.90
8313;DHT22;4194;43.408;24.626;2022-11-20T18:45:26;11.70;99.90
8313;DHT22;4194;43.408;24.626;2022-11-20T18:48:21;11.70;99.90
8313;DHT22;4194;43.408;24.626;2022-11-20T18:51:24;12.00;99.90
8313;DHT22;4194;43.408;24.626;2022-11-20T18:54:16;12.50;99.90
8313;DHT22;4194;43.408;24.626;2022-11-20T18:56:51;12.00;99.90
8313;DHT22;4194;43.408;24.626;2022-11-20T19:12:46;11.70;99.90
8313;DHT22;4194;43.408;24.626;2022-11-20T19:15:12;11.70;99.90
8313;DHT22;4194;43.408;24.626;2022-11-20T19:17:37;13.20;99.90
8313;DHT22;4194;43.408;24.626;2022-11-20T19:20:03;12.00;99.90
8313;DHT22;4194;43.408;24.626;2022-11-20T19:22:29;10.80;99.90
8313;DHT22;4194;43.408;24.626;2022-11-20T19:24:54;12.00;99.90
8313;DHT22;4194;43.408;24.626;2022-11-20T19:27:20;11.90;99.90
8313;DHT22;4194;43.408;24.626;2022-11-20T19:32:12;11.90;99.90
8313;DHT22;4194;43.408;24.626;2022-11-20T19:34:38;12.00;99.90
8313;DHT22;4194;43.408;24.626;2022-11-20T19:37:03;11.80;99.90
8313;DHT22;4194;43.408;24.626;2022-11-20T19:39:29;12.60;99.90
8313;DHT22;4194;43.408;24.626;2022-11-20T19:41:55;11.80;99.90
8313;DHT22;4194;43.408;24.626;2022-11-20T19:44:21;11.80;99.90
8313;DHT22;4194;43.408;24.626;2022-11-20T19:46:46;12.10;99.90
8313;DHT22;4194;43.408;24.626;2022-11-20T19:49:13;11.90;99.90
8313;DHT22;4194;43.408;24.626;2022-11-20T19:51:43;12.60;99.90
8313;DHT22;4194;43.408;24.626;2022-11-20T19:54:09;12.50;99.90
8313;DHT22;4194;43.408;24.626;2022-11-20T19:56:35;11.90;99.90